Time;durP1;ratioP1;P1;durP2;ratioP2;P2;SDS_P1;SDS_P2;PMS_P1;PMS_P2;Temp;Humidity;BMP_temperature;BMP_pressure;BME280_temperature;BME280_humidity;BME280_pressure;Samples;Min_cycle;Max_cycle;Signal;HPM_P1;HPM_P2
2021/11/25 00:01:10;;;;;;;12.77;4.30;;;6.90;99.90;;;;;;5024856;28;20070;-74
2021/11/25 00:03:35;;;;;;;11.00;3.80;;;6.80;99.90;;;;;;5024678;28;20030;-75
2021/11/25 00:06:01;;;;;;;10.25;4.53;;;6.80;99.90;;;;;;5025102;28;20026;-74
2021/11/25 00:08:26;;;;;;;9.27;4.20;;;6.80;99.90;;;;;;5023247;28;20033;-75
2021/11/25 00:10:52;;;;;;;9.40;3.58;;;6.70;99.90;;;;;;5023215;28;20093;-75
2021/11/25 00:13:18;;;;;;;8.52;3.78;;;6.70;99.90;;;;;;5023287;28;20110;-75
2021/11/25 00:15:44;;;;;;;10.65;4.78;;;6.70;99.90;;;;;;5024595;28;20026;-75
2021/11/25 00:18:11;;;;;;;13.20;4.88;;;6.70;99.90;;;;;;5023423;28;20038;-74
2021/11/25 00:20:38;;;;;;;11.45;5.20;;;6.70;99.90;;;;;;5025031;28;20386;-75
2021/11/25 00:23:04;;;;;;;11.07;5.45;;;6.70;99.90;;;;;;5023390;28;20034;-75
2021/11/25 00:25:29;;;;;;;9.00;4.38;;;6.70;99.90;;;;;;5024449;28;20037;-74
2021/11/25 00:27:55;;;;;;;12.68;5.35;;;6.70;99.90;;;;;;5024616;28;20034;-74
2021/11/25 00:30:21;;;;;;;11.50;5.00;;;6.70;99.90;;;;;;5024680;28;20030;-74
2021/11/25 00:32:47;;;;;;;11.80;4.45;;;6.70;99.90;;;;;;5023076;28;20455;-75
2021/11/25 00:35:14;;;;;;;8.68;4.32;;;6.70;99.90;;;;;;5022906;28;20025;-75
2021/11/25 00:37:40;;;;;;;10.20;5.03;;;6.70;99.90;;;;;;5023004;28;20042;-76
2021/11/25 00:40:10;;;;;;;11.88;5.63;;;6.70;99.90;;;;;;5023259;28;20030;-74
2021/11/25 00:42:37;;;;;;;11.15;5.25;;;6.70;99.90;;;;;;5024531;28;20026;-75
2021/11/25 00:45:04;;;;;;;17.33;5.00;;;6.70;99.90;;;;;;5023317;28;20482;-74
2021/11/25 00:47:29;;;;;;;12.52;5.43;;;6.70;99.90;;;;;;5024640;28;20038;-74
2021/11/25 00:49:55;;;;;;;12.60;5.38;;;6.70;99.90;;;;;;5026323;28;20087;-74
2021/11/25 00:52:20;;;;;;;13.55;5.45;;;6.70;99.90;;;;;;5027817;28;20451;-75
2021/11/25 00:54:46;;;;;;;9.40;4.97;;;6.70;99.90;;;;;;5026561;28;20025;-73
2021/11/25 00:57:12;;;;;;;12.57;5.45;;;6.70;99.90;;;;;;5027723;28;20073;-74
2021/11/25 00:59:38;;;;;;;11.30;4.55;;;6.70;99.90;;;;;;5026659;28;20053;-74
2021/11/25 01:02:04;;;;;;;10.32;4.55;;;6.70;99.90;;;;;;5028156;28;20026;-74
2021/11/25 01:04:30;;;;;;;13.23;4.47;;;6.70;99.90;;;;;;5027696;28;20065;-73
2021/11/25 01:06:55;;;;;;;8.20;4.65;;;6.80;99.90;;;;;;5027616;28;20034;-74
2021/11/25 01:09:21;;;;;;;11.05;5.10;;;6.60;99.90;;;;;;5027526;28;20033;-74
2021/11/25 01:11:47;;;;;;;10.02;3.83;;;6.70;99.90;;;;;;5026398;28;20030;-73
2021/11/25 01:14:14;;;;;;;17.50;6.10;;;6.70;99.90;;;;;;5027564;28;20030;-74
2021/11/25 01:16:40;;;;;;;9.65;4.13;;;6.70;99.90;;;;;;5027653;28;20542;-74
2021/11/25 01:19:06;;;;;;;8.63;3.97;;;6.60;99.90;;;;;;5026242;28;20048;-74
2021/11/25 01:21:31;;;;;;;12.48;5.43;;;6.60;99.90;;;;;;5027442;28;20040;-73
2021/11/25 01:23:57;;;;;;;11.05;4.50;;;6.60;99.90;;;;;;5027275;28;20048;-73
2021/11/25 01:26:23;;;;;;;12.07;4.80;;;6.50;99.90;;;;;;5025886;28;20486;-73
2021/11/25 01:28:48;;;;;;;9.63;4.45;;;6.50;99.90;;;;;;5026038;28;20026;-73
2021/11/25 01:31:14;;;;;;;9.60;4.45;;;6.50;99.90;;;;;;5027263;28;20022;-73
2021/11/25 01:33:40;;;;;;;9.90;4.70;;;6.40;99.90;;;;;;5026521;28;20037;-74
2021/11/25 01:36:05;;;;;;;11.10;4.68;;;6.40;99.90;;;;;;5026937;28;20106;-74
2021/11/25 01:38:32;;;;;;;10.10;4.78;;;6.40;99.90;;;;;;5025637;28;20076;-73
2021/11/25 01:40:57;;;;;;;12.40;4.88;;;6.40;99.90;;;;;;5027007;28;20036;-73
2021/11/25 01:43:25;;;;;;;10.52;4.78;;;6.40;99.90;;;;;;5026904;28;20022;-73
2021/11/25 01:45:52;;;;;;;12.55;4.63;;;6.40;99.90;;;;;;5026952;28;20068;-75
2021/11/25 01:48:18;;;;;;;11.20;5.18;;;6.40;99.90;;;;;;5026733;28;20042;-74
2021/11/25 01:50:44;;;;;;;16.50;5.32;;;6.30;99.90;;;;;;5026843;28;20032;-73
2021/11/25 01:53:13;;;;;;;12.32;5.05;;;6.30;99.90;;;;;;5026728;28;20072;-73
2021/11/25 01:55:40;;;;;;;9.10;4.90;;;6.30;99.90;;;;;;5026792;28;20061;-73
2021/11/25 01:58:06;;;;;;;13.60;5.07;;;6.20;99.90;;;;;;5026636;28;20057;-75
2021/11/25 02:00:49;;;;;;;10.75;4.70;;;6.20;99.90;;;;;;5026323;28;20041;-74
2021/11/25 02:03:15;;;;;;;9.30;4.10;;;6.20;99.90;;;;;;5025347;28;20546;-74
2021/11/25 02:05:41;;;;;;;9.35;4.25;;;6.10;99.90;;;;;;5025387;28;20021;-74
2021/11/25 02:08:08;;;;;;;11.70;4.90;;;6.10;99.90;;;;;;5026440;28;20034;-75
2021/11/25 02:10:37;;;;;;;13.18;5.53;;;6.00;99.90;;;;;;5026623;28;20101;-74
2021/11/25 02:13:04;;;;;;;10.00;5.18;;;6.00;99.90;;;;;;5026623;28;20033;-74
2021/11/25 02:15:34;;;;;;;14.05;4.78;;;6.00;99.90;;;;;;5026345;28;20156;-75
2021/11/25 02:18:08;;;;;;;13.38;5.35;;;6.00;99.90;;;;;;5026343;28;20477;-74
2021/11/25 02:20:38;;;;;;;17.13;7.03;;;5.90;99.90;;;;;;5032808;28;20080;-74
2021/11/25 02:23:05;;;;;;;17.35;5.65;;;5.90;99.90;;;;;;5026431;28;20026;-74
2021/11/25 02:25:31;;;;;;;11.07;5.30;;;6.00;99.90;;;;;;5026308;28;20117;-73
2021/11/25 02:27:57;;;;;;;13.02;5.28;;;5.70;99.90;;;;;;5025843;28;20451;-73
2021/11/25 02:30:23;;;;;;;14.23;5.57;;;5.70;99.90;;;;;;5026009;28;20394;-73
2021/11/25 02:32:49;;;;;;;15.25;5.50;;;5.80;99.90;;;;;;5024600;28;20034;-74
2021/11/25 02:35:18;;;;;;;15.10;5.05;;;5.70;99.90;;;;;;5025815;28;20498;-74
2021/11/25 02:37:45;;;;;;;12.82;5.43;;;5.70;99.90;;;;;;5025970;28;20033;-74
2021/11/25 02:40:44;;;;;;;14.98;5.25;;;5.70;99.90;;;;;;5024705;28;20025;-74
2021/11/25 02:43:13;;;;;;;17.88;6.00;;;5.60;99.90;;;;;;5012209;28;20046;-74
2021/11/25 02:45:54;;;;;;;12.88;5.45;;;5.60;99.90;;;;;;5024766;28;20049;-74
2021/11/25 02:48:27;;;;;;;15.60;6.70;;;5.60;99.90;;;;;;5025727;28;20056;-74
2021/11/25 02:50:54;;;;;;;12.18;5.38;;;5.60;99.90;;;;;;5025771;28;20014;-73
2021/11/25 02:53:22;;;;;;;15.02;5.95;;;5.60;99.90;;;;;;5024279;28;20502;-74
2021/11/25 02:55:48;;;;;;;10.40;4.35;;;5.50;99.90;;;;;;5024258;28;20057;-74
2021/11/25 02:58:13;;;;;;;15.95;5.93;;;5.50;99.90;;;;;;5025104;28;20474;-74
2021/11/25 03:00:44;;;;;;;12.30;6.00;;;5.50;99.90;;;;;;5025636;28;20033;-75
2021/11/25 03:03:13;;;;;;;11.68;5.32;;;5.50;99.90;;;;;;5025473;28;20521;-74
2021/11/25 03:05:40;;;;;;;21.20;6.30;;;5.50;99.90;;;;;;5025615;28;20034;-74
2021/11/25 03:08:08;;;;;;;14.70;5.93;;;5.60;99.90;;;;;;5024199;28;20113;-75
2021/11/25 03:10:37;;;;;;;10.00;5.25;;;5.60;99.90;;;;;;5026104;28;20056;-73
2021/11/25 03:13:04;;;;;;;14.00;5.35;;;5.70;99.90;;;;;;5044434;28;20029;-74
2021/11/25 03:15:36;;;;;;;15.82;5.97;;;5.70;99.90;;;;;;5045163;28;20068;-73
2021/11/25 03:18:02;;;;;;;14.93;5.63;;;5.70;99.90;;;;;;5041418;28;20045;-73
2021/11/25 03:20:28;;;;;;;16.75;6.68;;;5.70;99.90;;;;;;5024067;28;20129;-74
2021/11/25 03:22:54;;;;;;;12.65;6.47;;;5.80;99.90;;;;;;5025078;28;20030;-74
2021/11/25 03:25:19;;;;;;;16.13;6.40;;;5.80;99.90;;;;;;5024898;28;20030;-72
2021/11/25 03:27:45;;;;;;;14.75;6.03;;;5.80;99.90;;;;;;5023809;28;20068;-73
2021/11/25 03:30:11;;;;;;;15.38;5.30;;;5.80;99.90;;;;;;5025035;28;20026;-73
2021/11/25 03:32:37;;;;;;;18.15;6.60;;;5.80;99.90;;;;;;5024923;28;20037;-74
2021/11/25 03:35:03;;;;;;;19.35;6.38;;;5.90;99.90;;;;;;5039970;28;20021;-72
2021/11/25 03:37:29;;;;;;;15.38;6.47;;;5.80;99.90;;;;;;5024702;28;20042;-72
2021/11/25 03:39:55;;;;;;;18.48;6.68;;;5.90;99.90;;;;;;5024743;28;20068;-73
2021/11/25 03:42:20;;;;;;;19.23;7.15;;;6.00;99.90;;;;;;5040047;28;20030;-73
2021/11/25 03:44:46;;;;;;;16.70;6.68;;;6.00;99.90;;;;;;5023385;28;20034;-73
2021/11/25 03:47:13;;;;;;;19.40;7.00;;;6.00;99.90;;;;;;5024791;28;20036;-73
2021/11/25 03:49:40;;;;;;;24.48;6.97;;;6.00;99.90;;;;;;5024947;28;20478;-75
2021/11/25 03:52:06;;;;;;;18.60;6.78;;;6.00;99.90;;;;;;5039837;28;20026;-74
2021/11/25 03:54:32;;;;;;;19.77;6.63;;;6.00;99.90;;;;;;5024795;28;20093;-73
2021/11/25 03:56:57;;;;;;;15.82;6.05;;;6.00;99.90;;;;;;5024582;28;20058;-73
2021/11/25 03:59:23;;;;;;;22.25;7.25;;;5.90;99.90;;;;;;5024528;28;20034;-73
2021/11/25 04:01:49;;;;;;;17.52;6.55;;;5.90;99.90;;;;;;5024604;28;20033;-75
2021/11/25 04:04:15;;;;;;;24.63;8.90;;;5.90;99.90;;;;;;5039584;28;20113;-74
2021/11/25 04:06:41;;;;;;;25.67;7.63;;;5.90;99.90;;;;;;5023321;28;20030;-73
2021/11/25 04:09:06;;;;;;;17.98;5.53;;;5.90;99.90;;;;;;5024659;28;20104;-74
2021/11/25 04:11:32;;;;;;;19.40;6.70;;;6.00;99.90;;;;;;5023457;28;20037;-74
2021/11/25 04:14:02;;;;;;;25.02;7.20;;;5.90;99.90;;;;;;5024640;28;20030;-73
2021/11/25 04:16:27;;;;;;;18.15;7.15;;;5.90;99.90;;;;;;5023221;28;20030;-74
2021/11/25 04:18:56;;;;;;;17.60;7.28;;;5.90;99.90;;;;;;5023191;28;20038;-75
2021/11/25 04:21:22;;;;;;;13.90;6.10;;;5.90;99.90;;;;;;5024456;28;20030;-75
2021/11/25 04:23:48;;;;;;;13.48;5.75;;;5.90;99.90;;;;;;5025031;28;20048;-74
2021/11/25 04:26:13;;;;;;;15.00;6.00;;;5.80;99.90;;;;;;5043523;28;20117;-74
2021/11/25 04:28:39;;;;;;;17.05;6.32;;;5.80;99.90;;;;;;5043727;28;20053;-74
2021/11/25 04:36:33;;;;;;;15.07;5.78;;;5.70;99.90;;;;;;5028209;28;20057;-74
2021/11/25 04:38:59;;;;;;;14.07;6.20;;;5.70;99.90;;;;;;5026670;28;20414;-75
2021/11/25 04:41:25;;;;;;;20.08;7.60;;;5.70;99.90;;;;;;5028173;28;20034;-74
2021/11/25 04:43:56;;;;;;;16.77;6.80;;;5.70;99.90;;;;;;5043351;28;20497;-75
2021/11/25 04:46:23;;;;;;;19.80;7.35;;;5.80;99.90;;;;;;5026649;28;20022;-74
2021/11/25 04:48:48;;;;;;;18.35;6.55;;;5.70;99.90;;;;;;5027880;28;20080;-74
2021/11/25 04:51:14;;;;;;;21.27;6.82;;;5.80;99.90;;;;;;5027981;28;20033;-76
2021/11/25 04:53:40;;;;;;;14.65;6.13;;;5.80;99.90;;;;;;5043134;28;20034;-76
2021/11/25 04:56:06;;;;;;;23.38;7.93;;;5.80;99.90;;;;;;5026775;28;20467;-75
2021/11/25 04:58:33;;;;;;;21.67;7.68;;;5.90;99.90;;;;;;5026438;28;20737;-75
2021/11/25 05:00:59;;;;;;;25.00;7.43;;;5.90;99.90;;;;;;5027734;28;20466;-75
2021/11/25 05:03:25;;;;;;;17.55;6.63;;;5.80;99.90;;;;;;5027787;28;20038;-74
2021/11/25 05:05:54;;;;;;;14.95;6.47;;;5.80;99.90;;;;;;5027595;28;20044;-76
2021/11/25 05:08:20;;;;;;;21.98;7.72;;;5.80;99.90;;;;;;5042617;28;20117;-75
2021/11/25 05:10:46;;;;;;;15.70;6.55;;;5.90;99.90;;;;;;5027527;28;20026;-76
2021/11/25 05:13:13;;;;;;;18.90;7.53;;;5.80;99.90;;;;;;5027629;28;20149;-75
2021/11/25 05:15:39;;;;;;;17.95;7.50;;;5.80;99.90;;;;;;5027758;28;20030;-75
2021/11/25 05:18:06;;;;;;;17.00;7.78;;;5.90;99.90;;;;;;5027597;28;20041;-75
2021/11/25 05:20:32;;;;;;;23.40;7.78;;;5.90;99.90;;;;;;5027688;28;20061;-74
2021/11/25 05:22:57;;;;;;;25.23;8.40;;;6.00;99.90;;;;;;5027247;28;20026;-74
2021/11/25 05:25:24;;;;;;;20.48;9.18;;;5.90;99.90;;;;;;5025947;28;20033;-76
2021/11/25 05:27:50;;;;;;;28.10;8.18;;;5.90;99.90;;;;;;5027242;28;20022;-75
2021/11/25 05:30:16;;;;;;;24.88;9.30;;;5.90;99.90;;;;;;5027204;28;20022;-75
2021/11/25 05:32:44;;;;;;;34.92;9.07;;;5.90;99.90;;;;;;5027191;28;20018;-75
2021/11/25 05:35:12;;;;;;;25.38;10.27;;;6.00;99.90;;;;;;5025411;28;20033;-76
2021/11/25 05:37:39;;;;;;;24.67;11.18;;;5.90;99.90;;;;;;5025438;28;20101;-77
2021/11/25 05:40:11;;;;;;;27.85;9.35;;;6.10;99.90;;;;;;5025968;28;20072;-76
2021/11/25 05:42:43;;;;;;;26.38;9.07;;;6.00;99.90;;;;;;5025692;28;20026;-77
2021/11/25 05:45:14;;;;;;;27.38;9.88;;;6.00;99.90;;;;;;5025951;28;20030;-76
2021/11/25 05:47:41;;;;;;;29.60;10.23;;;5.90;99.90;;;;;;5027204;28;20029;-77
2021/11/25 05:50:17;;;;;;;25.30;9.65;;;6.00;99.90;;;;;;5025583;28;20111;-75
2021/11/25 05:52:47;;;;;;;26.73;8.93;;;6.00;99.90;;;;;;5025461;28;20026;-75
2021/11/25 05:55:14;;;;;;;23.90;8.82;;;6.00;99.90;;;;;;5042019;28;20034;-75
2021/11/25 05:57:40;;;;;;;29.77;9.65;;;6.00;99.90;;;;;;5026648;28;20048;-77
2021/11/25 06:00:11;;;;;;;23.00;9.15;;;5.90;99.90;;;;;;5026962;28;20032;-74
2021/11/25 06:02:38;;;;;;;25.77;9.45;;;5.90;99.90;;;;;;5026637;28;20033;-74
2021/11/25 06:05:04;;;;;;;26.60;9.38;;;6.00;99.90;;;;;;5041899;28;20022;-73
2021/11/25 06:07:30;;;;;;;33.15;11.02;;;5.90;99.90;;;;;;5026452;28;20109;-73
2021/11/25 06:09:55;;;;;;;26.33;9.25;;;5.90;99.90;;;;;;5026516;28;20041;-73
2021/11/25 06:12:24;;;;;;;23.25;10.05;;;5.90;99.90;;;;;;5026493;28;20030;-74
2021/11/25 06:14:50;;;;;;;30.30;10.52;;;5.90;99.90;;;;;;5025348;28;20057;-73
2021/11/25 06:17:16;;;;;;;28.52;11.02;;;5.90;99.90;;;;;;5027393;28;20026;-74
2021/11/25 06:19:42;;;;;;;26.58;10.50;;;6.00;99.90;;;;;;5026380;28;20026;-75
2021/11/25 06:22:08;;;;;;;25.63;9.98;;;5.90;99.90;;;;;;5026012;28;20030;-75
2021/11/25 06:24:33;;;;;;;31.55;10.95;;;6.00;99.90;;;;;;5026155;28;20039;-74
2021/11/25 06:26:59;;;;;;;29.15;9.85;;;5.80;99.90;;;;;;5024778;28;20033;-75
2021/11/25 06:29:25;;;;;;;28.70;10.55;;;5.90;99.90;;;;;;5026186;28;20040;-74
2021/11/25 06:31:50;;;;;;;35.67;11.15;;;6.00;99.90;;;;;;5025956;28;20034;-74
2021/11/25 06:34:16;;;;;;;26.98;10.75;;;6.00;99.90;;;;;;5024789;28;20033;-74
2021/11/25 06:36:41;;;;;;;32.70;11.38;;;6.00;99.90;;;;;;5025648;28;20056;-75
2021/11/25 06:39:08;;;;;;;26.85;9.85;;;5.90;99.90;;;;;;5024872;28;20042;-76
2021/11/25 06:41:34;;;;;;;37.80;10.93;;;6.00;99.90;;;;;;5035472;28;20056;-76
2021/11/25 06:43:59;;;;;;;29.58;11.23;;;5.90;99.90;;;;;;5036163;28;20029;-75
2021/11/25 06:46:25;;;;;;;29.85;11.50;;;5.90;99.90;;;;;;5040259;28;20095;-76
2021/11/25 06:48:51;;;;;;;31.67;12.15;;;5.90;99.90;;;;;;5034053;28;20032;-78
2021/11/25 06:51:27;;;;;;;29.58;11.63;;;5.90;99.90;;;;;;5045906;28;20488;-78
2021/11/25 06:53:59;;;;;;;27.70;10.88;;;5.90;99.90;;;;;;5064462;28;20017;-76
2021/11/25 06:56:25;;;;;;;32.40;11.77;;;5.90;99.90;;;;;;5062938;28;20088;-76
2021/11/25 06:58:52;;;;;;;31.63;11.20;;;5.90;99.90;;;;;;5059735;28;20056;-76
2021/11/25 07:01:18;;;;;;;33.22;11.63;;;5.90;99.90;;;;;;5045339;28;20021;-76
2021/11/25 07:03:44;;;;;;;29.23;10.65;;;5.80;99.90;;;;;;5044664;28;20081;-77
2021/11/25 07:06:24;;;;;;;31.30;10.50;;;5.90;99.90;;;;;;5040885;28;20060;-77
2021/11/25 07:08:50;;;;;;;36.95;12.60;;;5.90;99.90;;;;;;5040354;28;20044;-75
2021/11/25 07:11:16;;;;;;;29.02;11.85;;;5.90;99.90;;;;;;5039665;28;20021;-75
2021/11/25 07:13:43;;;;;;;39.78;12.43;;;5.90;99.90;;;;;;5034833;28;20036;-74
2021/11/25 07:16:13;;;;;;;34.35;12.73;;;5.80;99.90;;;;;;5036805;28;20071;-76
2021/11/25 07:18:39;;;;;;;42.65;13.88;;;5.90;99.90;;;;;;5041960;28;20030;-76
2021/11/25 07:21:06;;;;;;;35.65;12.85;;;6.00;99.90;;;;;;5035079;28;20036;-75
2021/11/25 07:23:32;;;;;;;39.08;12.82;;;5.80;99.90;;;;;;5037668;28;20399;-74
2021/11/25 07:25:57;;;;;;;31.67;12.50;;;6.10;99.90;;;;;;5040438;28;20818;-74
2021/11/25 07:28:23;;;;;;;41.20;12.82;;;6.00;99.90;;;;;;5023835;28;20048;-75
2021/11/25 07:30:48;;;;;;;44.67;12.98;;;5.90;99.90;;;;;;5024749;28;20028;-75
2021/11/25 07:33:14;;;;;;;30.80;11.77;;;6.00;99.90;;;;;;5031663;28;20044;-74
2021/11/25 07:35:46;;;;;;;38.38;10.93;;;6.00;99.90;;;;;;5039214;28;20072;-75
2021/11/25 07:38:12;;;;;;;30.58;12.20;;;6.00;99.90;;;;;;5030097;28;20171;-74
2021/11/25 07:40:38;;;;;;;34.85;11.02;;;6.00;99.90;;;;;;5030319;28;20033;-76
2021/11/25 07:43:04;;;;;;;26.75;10.90;;;6.00;99.90;;;;;;5032998;28;20030;-74
2021/11/25 07:45:32;;;;;;;36.70;13.13;;;6.00;99.90;;;;;;5024497;28;20049;-75
2021/11/25 07:47:57;;;;;;;36.63;11.90;;;6.00;99.90;;;;;;5024830;28;20463;-76
2021/11/25 07:50:27;;;;;;;36.47;12.38;;;6.00;99.90;;;;;;5032235;28;20052;-75
2021/11/25 07:52:54;;;;;;;34.58;11.48;;;5.90;99.90;;;;;;5032950;28;20025;-74
2021/11/25 07:55:20;;;;;;;38.33;13.48;;;5.90;99.90;;;;;;5038435;28;20030;-75
2021/11/25 07:57:46;;;;;;;29.45;11.45;;;6.00;99.90;;;;;;5023429;28;20037;-76
2021/11/25 08:00:14;;;;;;;29.67;13.30;;;6.00;99.90;;;;;;5031235;28;20026;-74
2021/11/25 08:02:44;;;;;;;35.42;12.73;;;6.10;99.90;;;;;;5060493;28;20034;-75
2021/11/25 08:05:14;;;;;;;37.03;13.63;;;6.30;99.90;;;;;;5046941;28;20030;-75
2021/11/25 08:07:42;;;;;;;39.72;13.23;;;6.30;99.90;;;;;;5029740;28;20034;-75
2021/11/25 08:10:12;;;;;;;35.20;13.93;;;6.20;99.90;;;;;;5050581;28;20029;-75
2021/11/25 08:12:43;;;;;;;29.85;12.38;;;6.20;99.90;;;;;;5050928;28;20025;-77
2021/11/25 08:15:12;;;;;;;36.22;12.38;;;6.20;99.90;;;;;;5051017;28;20064;-75
2021/11/25 08:17:40;;;;;;;35.75;12.68;;;6.20;99.90;;;;;;5049925;28;20076;-76
2021/11/25 08:20:09;;;;;;;37.90;13.35;;;6.20;99.90;;;;;;5049747;28;20026;-76
2021/11/25 08:22:36;;;;;;;36.60;12.52;;;6.10;99.90;;;;;;5051028;28;20537;-75
2021/11/25 08:25:05;;;;;;;34.20;12.55;;;6.20;99.90;;;;;;5049414;28;20029;-75
2021/11/25 08:27:31;;;;;;;31.65;12.48;;;6.10;99.90;;;;;;5045758;28;20450;-75
2021/11/25 08:29:57;;;;;;;38.78;12.90;;;6.10;99.90;;;;;;5030966;28;20025;-75
2021/11/25 08:32:23;;;;;;;26.83;11.60;;;6.10;99.90;;;;;;5038583;28;20478;-74
2021/11/25 08:34:49;;;;;;;34.42;12.55;;;6.10;99.90;;;;;;5049180;28;20026;-75
2021/11/25 08:37:15;;;;;;;27.35;12.73;;;6.10;99.90;;;;;;5050370;28;20053;-76
2021/11/25 08:39:44;;;;;;;33.25;12.52;;;6.10;99.90;;;;;;5051471;28;20044;-74
2021/11/25 08:42:11;;;;;;;29.10;12.02;;;6.10;99.90;;;;;;5044035;28;20026;-75
2021/11/25 08:44:38;;;;;;;34.42;13.30;;;6.10;99.90;;;;;;5035159;28;20035;-76
2021/11/25 08:47:05;;;;;;;32.45;11.30;;;6.10;99.90;;;;;;5047337;28;20076;-75
2021/11/25 08:49:32;;;;;;;32.15;12.52;;;6.10;99.90;;;;;;5050342;28;20497;-76
2021/11/25 08:51:57;;;;;;;37.67;11.88;;;6.10;99.90;;;;;;5049278;28;20068;-75
2021/11/25 08:54:23;;;;;;;33.47;12.75;;;6.10;99.90;;;;;;5039486;28;20049;-75
2021/11/25 08:56:50;;;;;;;28.83;11.55;;;6.30;99.90;;;;;;5031128;28;20028;-75
2021/11/25 08:59:17;;;;;;;34.38;11.80;;;6.30;99.90;;;;;;5033252;28;20049;-75
2021/11/25 09:01:42;;;;;;;34.80;12.57;;;6.30;99.90;;;;;;5039447;28;20029;-75
2021/11/25 09:04:08;;;;;;;34.60;13.00;;;6.40;99.90;;;;;;5033919;28;20096;-76
2021/11/25 09:06:35;;;;;;;34.90;10.27;;;6.40;99.90;;;;;;5050658;28;20029;-74
2021/11/25 09:09:04;;;;;;;37.30;11.98;;;6.40;99.90;;;;;;5048452;28;20021;-73
2021/11/25 09:11:30;;;;;;;38.97;11.55;;;6.40;99.90;;;;;;5043429;28;20040;-74
2021/11/25 09:13:56;;;;;;;28.80;10.55;;;6.40;99.90;;;;;;5035386;28;20043;-76
2021/11/25 09:16:22;;;;;;;42.30;13.57;;;6.40;99.90;;;;;;5046136;28;20068;-76
2021/11/25 09:18:47;;;;;;;38.67;11.73;;;6.40;99.90;;;;;;5035270;28;20116;-75
2021/11/25 09:21:13;;;;;;;39.40;11.30;;;6.40;99.90;;;;;;5040307;28;20037;-76
2021/11/25 09:23:39;;;;;;;33.88;11.90;;;6.40;99.90;;;;;;5034514;28;20040;-78
2021/11/25 09:26:12;;;;;;;28.50;11.60;;;6.40;99.90;;;;;;5045707;28;20044;-77
2021/11/25 09:28:41;;;;;;;35.30;11.67;;;6.40;99.90;;;;;;5046739;28;20029;-75
2021/11/25 09:31:13;;;;;;;36.60;12.93;;;6.40;99.90;;;;;;5053611;28;20276;-77
2021/11/25 09:33:45;;;;;;;31.20;11.50;;;6.40;99.90;;;;;;5045485;28;20041;-78
2021/11/25 09:36:11;;;;;;;30.10;11.73;;;6.40;99.90;;;;;;5038628;28;20126;-77
2021/11/25 09:38:37;;;;;;;28.73;11.95;;;6.50;99.90;;;;;;5029382;28;20042;-79
2021/11/25 09:41:03;;;;;;;39.70;11.57;;;6.50;99.90;;;;;;5037034;28;20034;-77
2021/11/25 09:43:29;;;;;;;35.83;12.77;;;6.60;99.90;;;;;;5026808;28;20022;-73
2021/11/25 09:45:55;;;;;;;34.88;10.00;;;6.60;99.90;;;;;;5034822;28;20094;-75
2021/11/25 09:48:24;;;;;;;33.47;12.07;;;6.70;99.90;;;;;;5026560;28;20077;-76
2021/11/25 09:50:52;;;;;;;28.35;11.07;;;6.70;99.90;;;;;;5025332;28;20022;-78
2021/11/25 09:53:21;;;;;;;34.53;11.88;;;6.70;99.90;;;;;;5026307;28;20033;-78
2021/11/25 09:55:50;;;;;;;33.65;11.18;;;6.70;99.90;;;;;;5025283;28;20037;-78
2021/11/25 09:58:25;;;;;;;29.10;11.50;;;6.70;99.90;;;;;;5026517;28;20421;-77
2021/11/25 10:01:03;;;;;;;31.67;11.85;;;6.70;99.90;;;;;;5034381;28;20052;-77
2021/11/25 10:03:40;;;;;;;34.25;11.77;;;6.80;99.90;;;;;;5038248;28;20040;-80
2021/11/25 10:06:09;;;;;;;28.92;11.50;;;6.80;99.90;;;;;;5033548;28;20026;-77
2021/11/25 10:08:48;;;;;;;30.88;12.02;;;6.70;99.90;;;;;;5026134;28;20094;-74
2021/11/25 10:11:23;;;;;;;25.85;10.13;;;6.70;99.90;;;;;;5024935;28;20037;-77
2021/11/25 10:14:05;;;;;;;34.95;12.40;;;6.60;99.90;;;;;;5027437;28;20030;-76
2021/11/25 10:16:35;;;;;;;25.00;10.40;;;6.60;99.90;;;;;;5042220;28;20089;-77
2021/11/25 10:19:12;;;;;;;28.10;11.82;;;6.60;99.90;;;;;;5030115;28;20494;-75
2021/11/25 10:21:48;;;;;;;30.50;12.10;;;6.60;99.90;;;;;;5038193;28;20425;-74
2021/11/25 10:24:14;;;;;;;32.83;11.95;;;6.50;99.90;;;;;;5042395;28;20035;-75
2021/11/25 10:26:45;;;;;;;35.38;14.27;;;6.50;99.90;;;;;;5045905;28;20021;-77
2021/11/25 10:29:12;;;;;;;33.22;12.82;;;6.50;99.90;;;;;;5045799;28;20042;-74
2021/11/25 10:31:43;;;;;;;39.35;12.27;;;6.50;99.90;;;;;;5025474;28;20090;-74
2021/11/25 10:34:18;;;;;;;29.63;11.88;;;6.50;99.90;;;;;;5036674;28;20078;-76
2021/11/25 10:37:03;;;;;;;41.13;13.25;;;6.40;99.90;;;;;;5045462;28;20093;-74
2021/11/25 10:42:31;;;;;;;37.53;13.70;;;6.40;99.90;;;;;;5045761;28;20109;-74
2021/11/25 10:44:56;;;;;;;40.92;12.95;;;6.30;99.90;;;;;;5045420;28;20030;-76
2021/11/25 10:47:26;;;;;;;32.80;13.07;;;6.30;99.90;;;;;;5042848;28;20064;-74
2021/11/25 10:50:10;;;;;;;40.13;13.70;;;6.30;99.90;;;;;;5045012;28;20018;-76
2021/11/25 10:52:44;;;;;;;29.98;11.38;;;6.30;99.90;;;;;;5035912;28;20034;-74
2021/11/25 10:55:22;;;;;;;32.88;12.27;;;6.20;99.90;;;;;;5028940;28;20030;-73
2021/11/25 10:58:01;;;;;;;35.95;12.05;;;6.30;99.90;;;;;;5023533;28;20038;-74
2021/11/25 11:00:45;;;;;;;34.25;12.25;;;6.30;99.90;;;;;;5024357;28;20100;-72
2021/11/25 11:03:26;;;;;;;28.38;11.13;;;6.20;99.90;;;;;;5024777;28;20418;-74
2021/11/25 11:05:58;;;;;;;41.20;13.73;;;6.20;99.90;;;;;;5040025;28;20040;-72
2021/11/25 11:08:32;;;;;;;36.33;12.38;;;6.20;99.90;;;;;;5024657;28;20018;-72
2021/11/25 11:11:03;;;;;;;34.25;12.90;;;6.20;99.90;;;;;;5040235;28;20025;-72
2021/11/25 11:13:48;;;;;;;38.47;12.55;;;6.10;99.90;;;;;;5044636;28;20033;-73
2021/11/25 11:19:04;;;;;;;37.22;12.05;;;6.10;99.90;;;;;;5044307;28;20047;-74
2021/11/25 11:21:42;;;;;;;33.75;12.95;;;6.30;99.90;;;;;;5042995;28;20557;-71
2021/11/25 11:24:18;;;;;;;32.22;11.88;;;6.20;99.90;;;;;;5030124;28;20090;-76
2021/11/25 11:26:51;;;;;;;33.05;11.95;;;6.20;99.90;;;;;;5040343;28;20033;-74
2021/11/25 11:29:28;;;;;;;33.58;12.45;;;6.20;99.90;;;;;;5034700;28;20060;-74
2021/11/25 11:31:56;;;;;;;41.75;13.00;;;6.30;99.90;;;;;;5026723;28;20032;-72
2021/11/25 11:34:24;;;;;;;39.75;13.90;;;6.30;99.90;;;;;;5023854;28;20035;-73
2021/11/25 11:36:52;;;;;;;37.35;12.25;;;6.30;99.90;;;;;;5040224;28;20060;-74
2021/11/25 11:39:20;;;;;;;35.22;13.23;;;6.30;99.90;;;;;;5032436;28;20053;-72
2021/11/25 11:41:50;;;;;;;34.83;13.10;;;6.30;99.90;;;;;;5039332;28;20080;-74
2021/11/25 11:44:20;;;;;;;43.38;13.13;;;6.30;99.90;;;;;;5043463;28;20026;-71
2021/11/25 11:47:17;;;;;;;41.25;12.68;;;6.40;99.90;;;;;;5043183;28;20041;-70
2021/11/25 11:49:44;;;;;;;30.13;11.70;;;6.30;99.90;;;;;;5042538;28;20025;-72
2021/11/25 11:52:23;;;;;;;31.45;11.38;;;6.40;99.90;;;;;;5043569;28;20021;-72
2021/11/25 11:54:55;;;;;;;32.00;12.32;;;6.40;99.90;;;;;;5043038;28;20117;-70
2021/11/25 11:57:27;;;;;;;32.40;12.63;;;6.30;99.90;;;;;;5042557;28;20035;-71
2021/11/25 11:59:54;;;;;;;47.63;13.80;;;6.30;99.90;;;;;;5043382;28;20022;-71
2021/11/25 12:02:41;;;;;;;36.55;13.93;;;6.30;99.90;;;;;;5043147;28;20034;-71
2021/11/25 12:05:08;;;;;;;42.30;14.82;;;6.40;99.90;;;;;;5043033;28;20087;-73
2021/11/25 12:07:34;;;;;;;45.10;14.52;;;6.40;99.90;;;;;;5043234;28;20471;-73
2021/11/25 12:09:59;;;;;;;46.78;14.25;;;6.40;99.90;;;;;;5041424;28;20030;-72
2021/11/25 12:12:27;;;;;;;34.08;13.30;;;6.40;99.90;;;;;;5040116;28;20030;-72
2021/11/25 12:14:56;;;;;;;39.38;13.27;;;6.40;99.90;;;;;;5040410;28;20112;-71
2021/11/25 12:17:30;;;;;;;36.78;12.77;;;6.40;99.90;;;;;;5041835;28;20028;-76
2021/11/25 12:20:18;;;;;;;42.13;14.43;;;6.40;99.90;;;;;;5039863;28;20035;-73
2021/11/25 12:22:52;;;;;;;36.97;13.73;;;6.50;99.90;;;;;;5040944;28;20052;-72
2021/11/25 12:25:53;;;;;;;38.63;13.30;;;6.50;99.90;;;;;;5042868;28;20076;-72
2021/11/25 12:28:26;;;;;;;42.70;13.60;;;6.60;99.90;;;;;;5030589;28;20033;-74
2021/11/25 12:31:07;;;;;;;40.35;13.73;;;6.60;99.90;;;;;;5042747;28;20018;-73
2021/11/25 12:33:46;;;;;;;33.72;11.50;;;6.60;99.90;;;;;;5042875;28;20029;-73
2021/11/25 12:36:33;;;;;;;39.47;13.05;;;6.50;99.90;;;;;;5042456;28;20064;-74
2021/11/25 12:38:59;;;;;;;35.70;11.98;;;6.50;99.90;;;;;;5040890;28;20037;-77
2021/11/25 12:41:25;;;;;;;43.13;12.55;;;6.50;99.90;;;;;;5032994;28;20443;-73
2021/11/25 12:43:51;;;;;;;39.28;14.60;;;6.50;99.90;;;;;;5021582;28;20030;-75
2021/11/25 12:46:18;;;;;;;25.23;11.13;;;6.50;99.90;;;;;;5025525;28;20026;-75
2021/11/25 12:48:49;;;;;;;32.75;12.18;;;6.50;99.90;;;;;;5044988;28;20068;-75
2021/11/25 12:51:24;;;;;;;37.05;14.82;;;6.50;99.90;;;;;;5045885;28;20108;-74
2021/11/25 12:53:58;;;;;;;43.33;14.20;;;6.50;99.90;;;;;;5038106;28;20030;-72
2021/11/25 12:56:34;;;;;;;34.40;10.63;;;6.60;99.90;;;;;;5024858;28;20026;-73
2021/11/25 12:59:11;;;;;;;47.97;14.27;;;6.60;99.90;;;;;;5025916;28;20088;-72
2021/11/25 13:01:44;;;;;;;40.90;12.52;;;6.70;99.90;;;;;;5027007;28;20184;-73